Time;durP1;ratioP1;P1;durP2;ratioP2;P2;SDS_P1;SDS_P2;PMS_P1;PMS_P2;Temp;Humidity;BMP_temperature;BMP_pressure;BME280_temperature;BME280_humidity;BME280_pressure;Samples;Min_cycle;Max_cycle;Signal;HPM_P1;HPM_P2
2021/04/03 00:00:31;;;;;;;5.33;3.70;;;6.50;99.90;;;;;;5066469;28;20445;-59
2021/04/03 00:02:57;;;;;;;2.70;2.23;;;6.30;99.90;;;;;;5069727;28;20449;-59
2021/04/03 00:05:25;;;;;;;3.27;2.40;;;6.30;99.90;;;;;;5069567;28;20452;-58
2021/04/03 00:07:51;;;;;;;3.70;3.10;;;6.30;99.90;;;;;;5068583;28;20574;-59
2021/04/03 00:10:44;;;;;;;3.97;2.47;;;6.30;99.90;;;;;;5067840;28;20442;-59
2021/04/03 00:13:10;;;;;;;4.80;2.03;;;6.30;99.90;;;;;;5070583;28;20460;-59
2021/04/03 00:15:36;;;;;;;3.50;2.60;;;6.30;99.90;;;;;;5068292;28;20448;-58
2021/04/03 00:18:02;;;;;;;2.53;2.33;;;6.30;99.90;;;;;;5083121;28;20446;-59
2021/04/03 00:20:30;;;;;;;3.50;2.20;;;6.30;99.90;;;;;;5078301;28;20444;-58
2021/04/03 00:22:56;;;;;;;3.70;2.23;;;6.40;99.90;;;;;;5077787;28;20203;-59
2021/04/03 00:25:22;;;;;;;3.93;1.67;;;6.30;99.90;;;;;;5072246;28;20652;-59
2021/04/03 00:27:48;;;;;;;2.47;2.27;;;6.40;99.90;;;;;;5071384;28;21288;-58
2021/04/03 00:30:15;;;;;;;3.27;2.17;;;6.30;99.90;;;;;;5072895;28;20171;-61
2021/04/03 00:32:52;;;;;;;3.07;2.50;;;7.60;99.90;;;;;;5072027;28;20453;-59
2021/04/03 00:35:23;;;;;;;5.20;2.60;;;6.30;99.90;;;;;;5069973;28;20547;-59
2021/04/03 00:37:50;;;;;;;5.03;2.60;;;6.30;99.90;;;;;;5068490;28;21012;-59
2021/04/03 00:40:19;;;;;;;3.97;2.70;;;6.40;99.90;;;;;;5068341;28;20461;-58
2021/04/03 00:42:45;;;;;;;4.00;2.63;;;6.40;99.90;;;;;;5068996;28;20776;-60
2021/04/03 00:45:13;;;;;;;5.17;3.10;;;6.60;99.90;;;;;;5070038;28;20448;-58
2021/04/03 00:47:39;;;;;;;4.00;2.93;;;6.50;99.90;;;;;;5069602;28;20469;-59
2021/04/03 00:50:05;;;;;;;3.93;2.67;;;6.50;99.90;;;;;;5077806;28;20526;-60
2021/04/03 00:52:31;;;;;;;2.87;2.50;;;6.50;99.90;;;;;;5069272;28;21080;-58
2021/04/03 00:54:56;;;;;;;4.90;3.20;;;6.50;99.90;;;;;;5069438;28;20695;-58
2021/04/03 00:57:22;;;;;;;4.50;3.47;;;6.40;99.90;;;;;;5068916;28;20198;-59
2021/04/03 00:59:48;;;;;;;6.27;3.37;;;6.40;99.90;;;;;;5066362;28;20607;-58
2021/04/03 01:02:14;;;;;;;5.03;3.40;;;3.00;99.90;;;;;;5067674;28;20738;-58
2021/04/03 01:04:39;;;;;;;6.60;3.97;;;6.30;99.90;;;;;;5070066;28;20524;-58
2021/04/03 01:07:05;;;;;;;6.43;4.03;;;6.30;99.90;;;;;;5069154;28;20191;-58
2021/04/03 01:09:38;;;;;;;5.30;3.30;;;6.40;99.90;;;;;;5066107;28;20266;-58
2021/04/03 01:12:23;;;;;;;6.80;3.97;;;6.60;99.90;;;;;;5069479;28;21008;-58
2021/04/03 01:15:11;;;;;;;6.40;3.50;;;6.60;99.90;;;;;;5068719;28;20441;-59
2021/04/03 01:18:09;;;;;;;4.03;2.87;;;6.70;99.90;;;;;;5069237;28;20523;-60
2021/04/03 01:21:00;;;;;;;6.80;3.63;;;6.70;99.90;;;;;;5069532;28;20442;-59
2021/04/03 01:24:00;;;;;;;6.23;4.17;;;6.70;99.90;;;;;;5051216;28;20456;-60
2021/04/03 01:27:03;;;;;;;5.80;4.00;;;6.70;99.90;;;;;;5068530;28;20869;-60
2021/04/03 01:29:28;;;;;;;9.23;4.70;;;6.90;99.90;;;;;;5072552;28;20478;-60
2021/04/03 01:31:55;;;;;;;7.73;3.93;;;6.80;99.90;;;;;;5070776;28;20445;-59
2021/04/03 01:34:25;;;;;;;4.93;3.30;;;6.80;99.90;;;;;;5073211;28;20175;-61
2021/04/03 01:36:52;;;;;;;7.43;4.00;;;6.80;99.90;;;;;;5070440;28;20535;-59
2021/04/03 01:39:21;;;;;;;5.50;3.73;;;6.80;99.90;;;;;;5073069;28;20481;-60
2021/04/03 01:41:48;;;;;;;7.10;4.23;;;6.70;99.90;;;;;;5076384;28;20437;-60
2021/04/03 01:44:21;;;;;;;8.50;4.60;;;6.60;99.90;;;;;;5084217;28;20985;-58
2021/04/03 01:46:49;;;;;;;7.30;4.97;;;6.80;99.90;;;;;;5074195;28;20453;-59
2021/04/03 01:49:16;;;;;;;7.27;4.30;;;6.90;99.90;;;;;;5073274;28;20473;-59
2021/04/03 01:51:45;;;;;;;8.83;5.07;;;6.90;99.90;;;;;;5073417;28;20566;-59
2021/04/03 01:54:12;;;;;;;10.07;5.23;;;6.90;99.90;;;;;;5076388;28;20465;-60
2021/04/03 01:56:39;;;;;;;7.93;4.80;;;7.00;99.90;;;;;;5072393;28;21019;-61
2021/04/03 01:59:10;;;;;;;5.40;4.60;;;7.00;99.90;;;;;;5066686;28;20446;-60
2021/04/03 02:01:44;;;;;;;12.97;5.50;;;6.90;99.90;;;;;;5072244;28;20548;-60
2021/04/03 02:04:12;;;;;;;7.67;5.30;;;6.80;99.90;;;;;;5072428;28;20491;-61
2021/04/03 02:06:41;;;;;;;7.37;5.10;;;6.90;99.90;;;;;;5072560;28;20495;-60
2021/04/03 02:09:09;;;;;;;10.67;5.97;;;7.00;99.90;;;;;;5071570;28;20465;-60
2021/04/03 02:11:37;;;;;;;9.37;6.33;;;7.00;99.90;;;;;;5072029;28;20443;-60
2021/04/03 02:14:05;;;;;;;9.93;6.23;;;7.00;99.90;;;;;;5073328;28;20472;-60
2021/04/03 02:16:33;;;;;;;7.47;5.57;;;7.00;99.90;;;;;;5079412;28;20445;-59
2021/04/03 02:19:01;;;;;;;12.13;6.50;;;7.00;99.90;;;;;;5072958;28;20934;-60
2021/04/03 02:21:27;;;;;;;9.70;5.60;;;7.00;99.90;;;;;;5071440;28;20670;-60
2021/04/03 02:23:52;;;;;;;11.93;5.97;;;7.10;99.90;;;;;;5083631;28;21051;-60
2021/04/03 02:26:18;;;;;;;8.77;6.43;;;7.10;99.90;;;;;;5070333;28;20239;-59
2021/04/03 02:28:44;;;;;;;12.27;6.67;;;7.20;99.90;;;;;;5071231;28;20207;-60
2021/04/03 02:31:09;;;;;;;10.37;6.70;;;7.30;99.90;;;;;;5071219;28;20567;-60
2021/04/03 02:33:35;;;;;;;17.93;6.73;;;7.20;99.90;;;;;;5072601;28;20438;-60
2021/04/03 02:36:01;;;;;;;15.03;6.80;;;7.20;99.90;;;;;;5070801;28;20188;-60
2021/04/03 02:38:26;;;;;;;15.20;6.83;;;7.20;99.90;;;;;;5054522;28;20188;-60
2021/04/03 02:40:52;;;;;;;9.70;6.80;;;7.10;99.90;;;;;;5069701;28;20216;-59
2021/04/03 02:43:34;;;;;;;9.27;6.27;;;7.10;99.90;;;;;;5070787;28;20183;-59
2021/04/03 02:46:11;;;;;;;13.87;6.00;;;7.10;99.90;;;;;;5083024;28;20181;-59
2021/04/03 02:48:39;;;;;;;17.43;7.60;;;7.10;99.90;;;;;;5071899;28;20460;-59
2021/04/03 02:51:07;;;;;;;20.07;6.70;;;7.10;99.90;;;;;;5071831;28;20433;-59
2021/04/03 02:53:34;;;;;;;13.70;7.10;;;7.10;99.90;;;;;;5082141;28;20541;-60
2021/04/03 02:56:03;;;;;;;11.37;6.43;;;7.10;99.90;;;;;;5075126;28;20567;-59
2021/04/03 02:58:34;;;;;;;11.17;6.80;;;7.10;99.90;;;;;;5071281;28;20807;-60
2021/04/03 03:01:01;;;;;;;15.67;7.70;;;7.10;99.90;;;;;;5066295;28;20497;-60
2021/04/03 03:03:29;;;;;;;12.43;6.70;;;7.20;99.90;;;;;;5074623;28;20561;-59
2021/04/03 03:05:58;;;;;;;17.20;8.90;;;7.20;99.90;;;;;;5071357;28;20449;-58
2021/04/03 03:08:26;;;;;;;16.50;8.00;;;7.20;99.90;;;;;;5069735;28;21021;-59
2021/04/03 03:10:54;;;;;;;12.97;7.30;;;7.10;99.90;;;;;;5071136;28;20453;-59
2021/04/03 03:13:20;;;;;;;14.37;8.03;;;7.10;99.90;;;;;;5071894;28;20434;-58
2021/04/03 03:15:46;;;;;;;16.47;7.00;;;7.10;99.90;;;;;;5071929;28;20438;-59
2021/04/03 03:18:13;;;;;;;11.90;7.00;;;7.10;99.90;;;;;;5068825;28;20518;-61
2021/04/03 03:20:39;;;;;;;15.13;6.80;;;7.20;99.90;;;;;;5071471;28;20283;-60
2021/04/03 03:23:05;;;;;;;13.40;6.60;;;7.20;99.90;;;;;;5071683;28;20459;-59
2021/04/03 03:25:30;;;;;;;12.80;7.80;;;7.30;99.90;;;;;;5069888;28;20482;-59
2021/04/03 03:27:57;;;;;;;11.07;6.70;;;7.30;99.90;;;;;;5071875;28;20205;-59
2021/04/03 03:30:25;;;;;;;13.70;8.33;;;7.10;99.90;;;;;;5070950;28;20172;-58
2021/04/03 03:32:51;;;;;;;11.30;7.67;;;7.10;99.90;;;;;;5071321;28;20525;-59
2021/04/03 03:35:17;;;;;;;24.93;9.23;;;7.20;99.90;;;;;;5068806;28;20495;-60
2021/04/03 03:37:44;;;;;;;17.30;8.60;;;7.20;99.90;;;;;;5067702;28;20442;-60
2021/04/03 03:40:12;;;;;;;12.53;8.07;;;7.10;99.90;;;;;;5067208;28;20870;-59
2021/04/03 03:42:38;;;;;;;16.20;8.40;;;7.20;99.90;;;;;;5070190;28;20438;-60
2021/04/03 03:45:08;;;;;;;15.60;8.90;;;7.20;99.90;;;;;;5071321;28;20499;-60
2021/04/03 03:47:34;;;;;;;13.80;8.17;;;7.10;99.90;;;;;;5090034;28;20462;-60
2021/04/03 03:49:59;;;;;;;15.23;8.67;;;7.10;99.90;;;;;;5088885;28;20998;-59
2021/04/03 03:52:25;;;;;;;16.93;7.63;;;7.10;99.90;;;;;;5070519;28;20669;-59
2021/04/03 03:54:51;;;;;;;12.70;7.80;;;7.00;99.90;;;;;;5069877;28;20225;-60
2021/04/03 03:57:16;;;;;;;15.33;7.57;;;8.40;99.90;;;;;;5069410;28;20191;-59
2021/04/03 03:59:42;;;;;;;16.93;7.23;;;6.90;99.90;;;;;;5087774;28;20528;-60
2021/04/03 04:02:08;;;;;;;11.43;7.70;;;7.00;99.90;;;;;;5073679;28;20195;-59
2021/04/03 04:04:33;;;;;;;12.13;8.07;;;7.00;99.90;;;;;;5084831;28;20236;-59
2021/04/03 04:06:59;;;;;;;22.00;10.00;;;7.10;99.90;;;;;;5070644;28;20191;-59
2021/04/03 04:09:26;;;;;;;11.33;7.40;;;7.10;99.90;;;;;;5080394;28;20207;-59
2021/04/03 04:11:51;;;;;;;17.63;8.80;;;7.10;99.90;;;;;;5070506;28;20187;-60
2021/04/03 04:14:17;;;;;;;14.57;7.37;;;7.00;99.90;;;;;;5076260;28;20449;-60
2021/04/03 04:16:43;;;;;;;12.67;6.43;;;7.00;99.90;;;;;;5070682;28;20537;-59
2021/04/03 04:19:09;;;;;;;15.37;7.33;;;7.00;99.90;;;;;;5070770;28;20676;-60
2021/04/03 04:21:35;;;;;;;16.03;8.43;;;7.00;99.90;;;;;;5074690;28;20453;-59
2021/04/03 04:24:00;;;;;;;12.23;7.83;;;7.10;99.90;;;;;;5088518;28;20447;-58
2021/04/03 04:26:26;;;;;;;11.30;7.90;;;7.00;99.90;;;;;;5067826;28;20373;-60
2021/04/03 04:28:51;;;;;;;11.33;7.40;;;7.00;99.90;;;;;;5070277;28;20215;-59
2021/04/03 04:31:17;;;;;;;10.73;7.30;;;7.10;99.90;;;;;;5068529;28;20194;-60
2021/04/03 04:33:42;;;;;;;12.10;7.07;;;7.10;99.90;;;;;;5083610;28;20192;-60
2021/04/03 04:36:08;;;;;;;15.23;7.67;;;7.10;99.90;;;;;;5068934;28;20661;-60
2021/04/03 04:38:34;;;;;;;12.30;7.40;;;7.10;99.90;;;;;;5075669;28;20183;-60
2021/04/03 04:40:59;;;;;;;15.47;7.70;;;7.00;99.90;;;;;;5070887;28;20598;-60
2021/04/03 04:43:25;;;;;;;17.57;8.70;;;7.10;99.90;;;;;;5069091;28;20257;-59
2021/04/03 04:45:51;;;;;;;15.27;8.03;;;7.10;99.90;;;;;;5071812;28;20189;-59
2021/04/03 04:48:17;;;;;;;12.67;8.10;;;7.10;99.90;;;;;;5082336;28;20594;-59
2021/04/03 04:50:42;;;;;;;16.07;7.80;;;7.10;99.90;;;;;;5081466;28;20871;-60
2021/04/03 04:53:08;;;;;;;17.43;9.00;;;7.20;99.90;;;;;;5072328;28;20183;-60
2021/04/03 04:55:34;;;;;;;19.43;9.30;;;7.10;99.90;;;;;;5081839;28;20557;-60
2021/04/03 04:58:00;;;;;;;13.90;7.70;;;7.20;99.90;;;;;;5076027;28;20645;-60
2021/04/03 05:00:26;;;;;;;21.30;8.60;;;7.10;99.90;;;;;;5081324;28;20445;-60
2021/04/03 05:02:51;;;;;;;20.80;7.80;;;7.00;99.90;;;;;;5067259;28;20183;-59
2021/04/03 05:05:17;;;;;;;14.73;8.97;;;6.90;99.90;;;;;;5067190;28;20458;-61
2021/04/03 05:07:42;;;;;;;14.17;9.00;;;6.90;99.90;;;;;;5075375;28;20242;-61
2021/04/03 05:10:08;;;;;;;16.03;8.90;;;6.90;99.90;;;;;;5080983;28;20679;-60
2021/04/03 05:12:34;;;;;;;17.40;8.70;;;6.90;99.90;;;;;;5070219;28;20688;-59
2021/04/03 05:14:59;;;;;;;14.50;9.27;;;7.00;99.90;;;;;;5069385;28;20524;-59
2021/04/03 05:17:25;;;;;;;17.53;9.27;;;6.90;99.90;;;;;;5067833;28;20282;-60
2021/04/03 05:19:51;;;;;;;12.07;7.13;;;6.90;99.90;;;;;;5068346;28;20232;-60
2021/04/03 05:22:16;;;;;;;14.90;9.30;;;6.90;99.90;;;;;;5067094;28;20716;-58
2021/04/03 05:24:42;;;;;;;21.03;9.13;;;6.80;99.90;;;;;;5069371;28;20210;-60
2021/04/03 05:27:08;;;;;;;16.30;8.70;;;6.90;99.90;;;;;;5068060;28;20652;-59
2021/04/03 05:29:33;;;;;;;20.37;8.67;;;6.90;99.90;;;;;;5067614;28;20293;-59
2021/04/03 05:31:59;;;;;;;18.43;8.70;;;6.90;99.90;;;;;;5065013;28;20926;-60
2021/04/03 05:34:24;;;;;;;14.77;8.53;;;7.00;99.90;;;;;;5069781;28;20175;-61
2021/04/03 05:36:50;;;;;;;18.27;8.67;;;7.00;99.90;;;;;;5074041;28;20179;-60
2021/04/03 05:39:15;;;;;;;13.23;7.60;;;7.10;99.90;;;;;;5069660;28;20297;-60
2021/04/03 05:41:41;;;;;;;20.33;9.30;;;7.00;99.90;;;;;;5068911;28;20267;-60
2021/04/03 05:44:10;;;;;;;13.57;8.43;;;7.00;99.90;;;;;;5067935;28;20701;-59
2021/04/03 05:46:38;;;;;;;14.73;8.47;;;7.00;99.90;;;;;;5069039;28;20254;-60
2021/04/03 05:49:04;;;;;;;15.40;9.13;;;7.00;99.90;;;;;;5069620;28;20786;-60
2021/04/03 05:51:30;;;;;;;12.77;9.63;;;7.10;99.90;;;;;;5069628;28;20438;-60
2021/04/03 05:53:57;;;;;;;19.33;9.40;;;;;;;;;;5067230;28;20593;-61
2021/04/03 05:56:22;;;;;;;14.17;8.50;;;7.20;99.90;;;;;;5067651;28;20795;-59
2021/04/03 05:58:48;;;;;;;17.80;8.27;;;7.40;99.90;;;;;;5067868;28;20452;-59
2021/04/03 06:01:13;;;;;;;15.40;9.93;;;7.40;99.90;;;;;;5067561;28;20222;-60
2021/04/03 06:03:39;;;;;;;22.43;10.37;;;7.40;99.90;;;;;;5067897;28;20585;-61
2021/04/03 06:06:05;;;;;;;19.50;9.20;;;7.40;99.90;;;;;;5068169;28;20192;-61
2021/04/03 06:08:32;;;;;;;21.63;8.97;;;7.40;99.90;;;;;;5069342;28;20249;-60
2021/04/03 06:11:16;;;;;;;15.40;8.40;;;7.40;99.90;;;;;;5070156;28;20179;-60
2021/04/03 06:14:00;;;;;;;17.93;7.90;;;7.30;99.90;;;;;;5076763;28;20437;-60
2021/04/03 06:16:36;;;;;;;16.43;8.53;;;7.10;99.90;;;;;;5077510;28;20433;-59
2021/04/03 06:19:13;;;;;;;12.20;8.00;;;7.00;99.90;;;;;;5073452;28;20456;-59
2021/04/03 06:21:41;;;;;;;24.13;9.47;;;7.10;99.90;;;;;;5072313;28;20445;-60
2021/04/03 06:24:23;;;;;;;12.30;8.87;;;7.10;99.90;;;;;;5072172;28;20441;-59
2021/04/03 06:26:56;;;;;;;16.90;8.63;;;7.00;99.90;;;;;;5070827;28;20954;-60
2021/04/03 06:29:26;;;;;;;12.40;8.43;;;6.90;99.90;;;;;;5072272;28;20496;-60
2021/04/03 06:31:54;;;;;;;19.00;9.90;;;7.00;99.90;;;;;;5079156;28;20491;-60
2021/04/03 06:34:27;;;;;;;12.90;8.33;;;7.00;99.90;;;;;;5083599;28;20430;-60
2021/04/03 06:36:53;;;;;;;12.43;8.77;;;7.10;99.90;;;;;;5073398;28;20981;-61
2021/04/03 06:39:19;;;;;;;22.53;9.70;;;7.20;99.90;;;;;;5070093;28;21198;-60
2021/04/03 06:41:45;;;;;;;17.00;7.97;;;7.30;99.90;;;;;;5070511;28;20741;-61
2021/04/03 06:44:11;;;;;;;16.93;7.87;;;7.30;99.90;;;;;;5072019;28;20196;-61
2021/04/03 06:46:42;;;;;;;19.00;8.40;;;7.30;99.90;;;;;;5068763;28;20187;-60
2021/04/03 06:49:09;;;;;;;14.37;7.80;;;7.40;99.90;;;;;;5069799;28;20472;-60
2021/04/03 06:51:35;;;;;;;17.33;9.33;;;7.30;99.90;;;;;;5070935;28;20446;-59
2021/04/03 06:54:04;;;;;;;12.37;8.27;;;7.50;99.90;;;;;;5071898;28;20837;-62
2021/04/03 06:56:33;;;;;;;17.20;7.80;;;7.40;99.90;;;;;;5070699;28;20450;-61
2021/04/03 06:59:07;;;;;;;12.60;7.83;;;7.40;99.90;;;;;;5083048;28;20953;-62
2021/04/03 07:01:55;;;;;;;16.07;8.87;;;7.40;99.90;;;;;;5086947;28;21019;-61
2021/04/03 07:04:28;;;;;;;14.40;8.90;;;7.40;99.90;;;;;;5087167;28;20855;-60
2021/04/03 07:06:57;;;;;;;14.40;7.17;;;7.30;99.90;;;;;;5072148;28;20926;-59
2021/04/03 07:09:24;;;;;;;14.50;8.10;;;7.30;99.90;;;;;;5074129;28;20499;-60
2021/04/03 07:11:52;;;;;;;14.77;8.77;;;7.20;99.90;;;;;;5071465;28;20830;-59
2021/04/03 07:14:19;;;;;;;17.30;9.00;;;7.10;99.90;;;;;;5070879;28;20483;-59
2021/04/03 07:16:48;;;;;;;16.70;9.20;;;7.20;99.90;;;;;;5070590;28;20442;-59
2021/04/03 07:19:15;;;;;;;16.03;8.60;;;7.20;99.90;;;;;;5069167;28;20540;-62
2021/04/03 07:21:42;;;;;;;14.87;8.20;;;7.10;99.90;;;;;;5083179;28;20455;-62
2021/04/03 07:24:10;;;;;;;15.73;9.73;;;7.10;99.90;;;;;;5076235;28;20477;-64
2021/04/03 07:26:38;;;;;;;12.20;8.83;;;7.00;99.90;;;;;;5078490;28;20490;-63
2021/04/03 07:29:04;;;;;;;27.90;12.10;;;7.00;99.90;;;;;;5065529;28;20472;-64
2021/04/03 07:31:46;;;;;;;16.60;9.40;;;7.10;99.90;;;;;;5070819;28;20438;-64
2021/04/03 07:34:12;;;;;;;13.73;9.00;;;7.10;99.90;;;;;;5079534;28;20890;-63
2021/04/03 07:36:41;;;;;;;12.37;8.60;;;7.20;99.90;;;;;;5072915;28;21003;-63
2021/04/03 07:39:37;;;;;;;17.37;8.83;;;7.20;99.90;;;;;;5078084;28;20533;-63
2021/04/03 07:42:03;;;;;;;16.50;9.20;;;7.20;99.90;;;;;;5070420;28;20442;-63
2021/04/03 07:44:37;;;;;;;13.37;7.43;;;7.20;99.90;;;;;;5079147;28;20512;-62
2021/04/03 07:47:22;;;;;;;15.63;7.87;;;7.10;99.90;;;;;;5074053;28;20441;-63
2021/04/03 07:49:48;;;;;;;23.07;9.20;;;7.60;99.90;;;;;;5076423;28;20817;-62
2021/04/03 07:52:15;;;;;;;12.10;7.73;;;7.60;99.90;;;;;;5072999;28;20438;-62
2021/04/03 07:54:41;;;;;;;12.57;8.03;;;7.80;99.90;;;;;;5074183;28;20180;-62
2021/04/03 07:57:10;;;;;;;14.17;7.20;;;8.00;99.90;;;;;;5080357;28;21057;-63
2021/04/03 07:59:48;;;;;;;12.90;7.40;;;8.20;99.90;;;;;;5084095;28;21005;-62
2021/04/03 08:02:20;;;;;;;15.27;9.17;;;8.20;78.70;;;;;;5080180;28;20448;-62
2021/04/03 08:04:46;;;;;;;10.50;7.03;;;8.20;92.50;;;;;;5083866;28;20442;-63
2021/04/03 08:07:12;;;;;;;13.70;8.53;;;8.30;96.60;;;;;;5076989;28;20445;-63
2021/04/03 08:09:38;;;;;;;13.77;7.27;;;8.30;91.80;;;;;;5072748;28;20461;-63
2021/04/03 08:12:05;;;;;;;10.43;7.97;;;8.10;98.00;;;;;;5067481;28;20453;-64
2021/04/03 08:14:32;;;;;;;12.27;8.23;;;8.10;95.00;;;;;;5067542;28;20253;-63
2021/04/03 08:16:59;;;;;;;11.50;6.73;;;8.00;91.60;;;;;;5070574;28;20437;-63
2021/04/03 08:19:30;;;;;;;12.50;6.63;;;7.90;92.20;;;;;;5070490;28;20438;-63
2021/04/03 08:21:57;;;;;;;9.43;6.33;;;7.70;97.10;;;;;;5070128;28;20495;-63
2021/04/03 08:24:23;;;;;;;10.70;6.63;;;7.40;99.90;;;;;;5070345;28;20561;-64
2021/04/03 08:26:50;;;;;;;9.43;7.57;;;7.50;99.90;;;;;;5070311;28;20618;-65
2021/04/03 08:29:31;;;;;;;13.10;7.93;;;7.60;99.90;;;;;;5081895;28;20462;-64
2021/04/03 08:31:57;;;;;;;14.73;8.10;;;7.70;99.90;;;;;;5078237;28;20448;-63
2021/04/03 08:34:23;;;;;;;13.10;8.57;;;7.80;99.90;;;;;;5073897;28;20926;-63
2021/04/03 08:36:49;;;;;;;12.83;8.47;;;7.80;99.90;;;;;;5071406;28;20495;-63
2021/04/03 08:39:17;;;;;;;12.93;7.70;;;7.80;99.90;;;;;;5073736;28;20196;-64
2021/04/03 08:41:48;;;;;;;13.77;8.00;;;7.70;99.90;;;;;;5068120;28;20460;-62
2021/04/03 08:44:15;;;;;;;12.23;8.30;;;7.60;99.90;;;;;;5068804;28;20490;-64
2021/04/03 08:46:42;;;;;;;15.40;8.47;;;7.60;99.90;;;;;;5075580;28;20453;-61
2021/04/03 08:49:07;;;;;;;15.33;7.87;;;7.60;99.90;;;;;;5074604;28;20471;-63
2021/04/03 08:51:35;;;;;;;13.57;7.33;;;7.50;99.90;;;;;;5069928;28;20426;-61
2021/04/03 08:54:01;;;;;;;10.07;6.83;;;7.60;99.90;;;;;;5073173;28;20180;-62
2021/04/03 08:56:35;;;;;;;9.60;6.00;;;7.70;99.90;;;;;;5069767;28;20525;-63
2021/04/03 08:59:12;;;;;;;12.03;6.20;;;8.00;99.90;;;;;;5065126;28;20460;-61
2021/04/03 09:01:41;;;;;;;7.70;5.43;;;8.00;99.90;;;;;;5065071;28;20445;-62
2021/04/03 09:04:08;;;;;;;9.47;5.80;;;8.20;99.90;;;;;;5069813;28;20438;-62
2021/04/03 09:06:41;;;;;;;6.10;3.93;;;8.40;99.90;;;;;;5068756;28;21329;-62
2021/04/03 09:09:11;;;;;;;6.80;4.10;;;8.60;99.90;;;;;;5070062;28;20458;-63
2021/04/03 09:11:37;;;;;;;6.53;4.43;;;8.90;99.90;;;;;;5067720;28;20474;-62
2021/04/03 09:14:03;;;;;;;4.57;3.83;;;9.10;60.80;;;;;;5069868;28;20482;-62
2021/04/03 09:16:36;;;;;;;8.70;3.97;;;9.20;26.40;;;;;;5069534;28;20431;-63
2021/04/03 09:19:02;;;;;;;5.40;3.77;;;9.00;17.10;;;;;;5068649;28;20288;-63
2021/04/03 09:21:28;;;;;;;5.93;4.30;;;;;;;;;;5069500;28;20534;-63
2021/04/03 09:23:56;;;;;;;7.27;4.90;;;8.80;11.20;;;;;;5070056;28;20192;-63
2021/04/03 09:26:36;;;;;;;6.37;4.60;;;8.40;25.80;;;;;;5068686;28;20868;-63
2021/04/03 09:29:06;;;;;;;11.73;5.53;;;8.40;28.20;;;;;;5066346;28;20962;-63
2021/04/03 09:32:02;;;;;;;9.23;6.50;;;8.60;24.30;;;;;;5066889;28;20441;-63
2021/04/03 09:34:33;;;;;;;14.60;6.30;;;8.70;12.70;;;;;;5068759;28;20506;-62
2021/04/03 09:37:17;;;;;;;9.60;5.57;;;8.80;12.90;;;;;;5069627;28;20446;-63
2021/04/03 09:39:54;;;;;;;7.40;6.00;;;8.90;1.00;;;;;;5067707;28;20521;-62
2021/04/03 09:42:25;;;;;;;10.40;5.63;;;9.30;1.00;;;;;;5068569;28;20450;-62
2021/04/03 09:44:54;;;;;;;7.97;5.37;;;9.30;1.00;;;;;;5069005;28;20510;-63
2021/04/03 09:47:20;;;;;;;8.63;5.73;;;9.70;1.00;;;;;;5081069;28;20446;-64
2021/04/03 09:49:46;;;;;;;8.23;5.80;;;10.10;1.00;;;;;;5070215;28;20540;-63
2021/04/03 09:52:13;;;;;;;13.53;6.00;;;10.00;1.00;;;;;;5073541;28;20487;-63
2021/04/03 09:54:40;;;;;;;5.90;4.40;;;9.90;1.00;;;;;;5073225;28;20177;-65
2021/04/03 09:57:06;;;;;;;7.53;4.27;;;9.60;1.00;;;;;;5087159;28;20485;-62
2021/04/03 09:59:32;;;;;;;8.67;4.23;;;9.70;1.00;;;;;;5084479;28;20458;-63
2021/04/03 10:01:59;;;;;;;6.10;4.13;;;10.20;1.00;;;;;;5072399;28;20447;-65
2021/04/03 10:04:25;;;;;;;6.43;3.57;;;10.70;1.00;;;;;;5073849;28;20786;-64
2021/04/03 10:06:51;;;;;;;9.50;5.13;;;11.20;1.00;;;;;;5080646;28;20448;-65
2021/04/03 10:09:17;;;;;;;6.87;5.00;;;11.00;1.00;;;;;;5079794;28;20646;-65
2021/04/03 10:11:43;;;;;;;7.30;4.60;;;11.00;1.00;;;;;;5072362;28;20499;-64
2021/04/03 10:14:09;;;;;;;11.43;4.87;;;10.60;1.00;;;;;;5073009;28;20479;-64
2021/04/03 10:16:34;;;;;;;6.30;4.17;;;10.70;1.00;;;;;;5073312;28;20187;-64
2021/04/03 10:19:00;;;;;;;6.13;3.53;;;10.70;1.00;;;;;;5071883;28;20451;-64
2021/04/03 10:21:26;;;;;;;7.23;3.80;;;10.90;1.00;;;;;;5072787;28;20651;-64
2021/04/03 10:23:52;;;;;;;4.47;3.80;;;11.00;1.00;;;;;;5070319;28;20194;-65
2021/04/03 10:26:18;;;;;;;4.97;2.87;;;11.00;1.00;;;;;;5071336;28;20248;-65
2021/04/03 10:28:44;;;;;;;4.13;2.40;;;10.90;1.00;;;;;;5077415;28;20473;-66
2021/04/03 10:31:10;;;;;;;5.87;2.10;;;10.80;1.00;;;;;;5072690;28;20452;-66
2021/04/03 10:33:36;;;;;;;3.40;2.20;;;10.90;1.00;;;;;;5073964;28;20536;-65
2021/04/03 10:36:06;;;;;;;4.43;1.77;;;10.90;1.00;;;;;;5082603;28;20834;-66
2021/04/03 10:38:32;;;;;;;5.10;2.40;;;10.80;1.00;;;;;;5072660;28;20447;-65
2021/04/03 10:40:59;;;;;;;4.20;2.27;;;10.80;1.00;;;;;;5071642;28;21002;-66
2021/04/03 10:43:24;;;;;;;4.63;1.90;;;10.80;1.00;;;;;;5072105;28;20444;-68
2021/04/03 10:45:50;;;;;;;2.73;1.70;;;10.80;1.00;;;;;;5069703;28;20452;-67
2021/04/03 10:48:15;;;;;;;3.03;1.87;;;10.60;1.00;;;;;;5072976;28;20294;-66
2021/04/03 10:50:41;;;;;;;3.10;1.97;;;10.60;1.00;;;;;;5067776;28;20639;-62
2021/04/03 10:53:07;;;;;;;4.47;2.00;;;10.30;1.00;;;;;;5072463;28;20196;-65
2021/04/03 10:55:33;;;;;;;3.40;1.83;;;10.20;1.00;;;;;;5091546;28;20202;-65
2021/04/03 10:57:59;;;;;;;4.77;2.30;;;10.00;1.00;;;;;;5079107;28;20448;-66
2021/04/03 11:00:25;;;;;;;4.63;2.03;;;9.90;1.00;;;;;;5071999;28;20524;-66
2021/04/03 11:02:51;;;;;;;6.40;2.43;;;9.80;1.00;;;;;;5072078;28;20616;-65
2021/04/03 11:05:17;;;;;;;5.87;1.67;;;10.40;1.00;;;;;;5076288;28;20450;-65
2021/04/03 11:07:42;;;;;;;3.83;1.77;;;10.80;1.00;;;;;;5079625;28;20234;-66
2021/04/03 11:10:09;;;;;;;3.73;1.70;;;10.80;1.00;;;;;;5092162;28;20833;-66
2021/04/03 11:12:34;;;;;;;4.67;1.40;;;10.60;1.00;;;;;;5072557;28;20178;-65
2021/04/03 11:15:00;;;;;;;4.30;1.50;;;10.50;1.00;;;;;;5071001;28;20433;-67
2021/04/03 11:17:25;;;;;;;2.90;1.43;;;10.50;1.00;;;;;;5070545;28;20205;-65
2021/04/03 11:19:51;;;;;;;3.87;1.60;;;10.60;1.00;;;;;;5070544;28;20187;-65
2021/04/03 11:22:17;;;;;;;2.83;1.60;;;10.60;1.00;;;;;;5080649;28;20216;-64
2021/04/03 11:24:42;;;;;;;6.63;3.40;;;10.80;1.00;;;;;;5092821;28;20178;-66
2021/04/03 11:27:08;;;;;;;2.13;1.33;;;10.90;1.00;;;;;;5092813;28;20227;-66
2021/04/03 11:29:33;;;;;;;1.90;1.50;;;11.40;1.00;;;;;;5082653;28;20211;-66
2021/04/03 11:31:59;;;;;;;2.57;1.33;;;11.80;1.00;;;;;;5072261;28;20181;-67
2021/04/03 11:34:25;;;;;;;2.63;1.37;;;11.70;1.00;;;;;;5070464;28;20183;-66
2021/04/03 11:36:52;;;;;;;2.40;1.40;;;11.70;1.00;;;;;;5072000;28;20587;-65
2021/04/03 11:39:17;;;;;;;1.13;1.03;;;11.60;1.00;;;;;;5071796;28;20807;-67
2021/04/03 11:41:43;;;;;;;2.20;0.93;;;11.70;1.00;;;;;;5071522;28;20440;-66
2021/04/03 11:44:08;;;;;;;2.50;1.40;;;11.60;1.00;;;;;;5071710;28;20190;-66
2021/04/03 11:46:34;;;;;;;1.73;1.17;;;11.50;1.00;;;;;;5070618;28;20186;-65
2021/04/03 11:49:00;;;;;;;2.70;0.93;;;11.50;1.00;;;;;;5071641;28;20206;-66
2021/04/03 11:51:25;;;;;;;2.00;1.00;;;11.50;1.00;;;;;;5071596;28;20636;-66
2021/04/03 11:53:51;;;;;;;2.00;1.30;;;11.80;1.00;;;;;;5071323;28;20545;-66
2021/04/03 11:56:17;;;;;;;4.33;1.33;;;12.10;1.00;;;;;;5070191;28;20308;-65
2021/04/03 11:58:42;;;;;;;2.80;0.97;;;12.20;1.00;;;;;;5071202;28;20186;-66
2021/04/03 12:01:08;;;;;;;1.77;1.20;;;12.10;1.00;;;;;;5070152;28;20523;-66
2021/04/03 12:03:34;;;;;;;2.70;1.73;;;11.90;1.00;;;;;;5069313;28;20576;-66
2021/04/03 12:06:00;;;;;;;2.80;1.27;;;;;;;;;;5070199;28;20195;-66
2021/04/03 12:08:25;;;;;;;2.20;1.07;;;11.50;1.00;;;;;;5069819;28;20210;-65
2021/04/03 12:10:51;;;;;;;3.13;1.20;;;11.50;1.00;;;;;;5071062;28;20791;-66
2021/04/03 12:13:17;;;;;;;2.80;0.83;;;11.50;1.00;;;;;;5070681;28;20684;-66
2021/04/03 12:15:43;;;;;;;2.50;1.20;;;12.00;1.00;;;;;;5071449;28;20198;-66
2021/04/03 12:18:08;;;;;;;1.70;0.90;;;12.20;1.00;;;;;;5071106;28;20187;-65
2021/04/03 12:20:34;;;;;;;0.97;0.90;;;12.30;1.00;;;;;;5071304;28;20459;-65
2021/04/03 12:23:00;;;;;;;2.90;1.00;;;12.30;1.00;;;;;;5071221;28;20186;-65
2021/04/03 12:25:27;;;;;;;1.20;1.10;;;11.90;1.00;;;;;;5086029;28;20233;-66
2021/04/03 12:27:53;;;;;;;3.83;1.33;;;11.50;1.00;;;;;;5087123;28;20459;-65
2021/04/03 12:30:19;;;;;;;2.37;1.27;;;11.20;1.00;;;;;;5091409;28;20505;-64
2021/04/03 12:32:44;;;;;;;1.70;0.87;;;11.00;1.00;;;;;;5080623;28;20197;-65
2021/04/03 12:35:10;;;;;;;1.60;1.20;;;11.30;1.00;;;;;;5070668;28;20519;-66
2021/04/03 12:37:36;;;;;;;1.90;0.93;;;11.70;1.00;;;;;;5070801;28;20205;-65
2021/04/03 12:40:03;;;;;;;1.50;0.97;;;11.70;1.00;;;;;;5070497;28;20510;-65
2021/04/03 12:42:30;;;;;;;1.60;1.20;;;11.80;1.00;;;;;;5069260;28;20182;-64
2021/04/03 12:44:56;;;;;;;1.43;1.00;;;11.70;1.00;;;;;;5070789;28;20441;-64
2021/04/03 12:47:21;;;;;;;2.23;1.23;;;11.50;1.00;;;;;;5069399;28;20445;-64
2021/04/03 12:49:47;;;;;;;6.27;1.10;;;11.20;1.00;;;;;;5069565;28;20266;-65
2021/04/03 12:52:12;;;;;;;1.33;0.60;;;11.20;1.00;;;;;;5083290;28;20198;-64
2021/04/03 12:54:38;;;;;;;2.20;1.33;;;11.10;1.00;;;;;;5090926;28;20485;-66
2021/04/03 12:57:04;;;;;;;2.10;0.90;;;11.20;1.00;;;;;;5079266;28;20184;-65